Time;durP1;ratioP1;P1;durP2;ratioP2;P2;SDS_P1;SDS_P2;PMS_P1;PMS_P2;Temp;Humidity;BMP_temperature;BMP_pressure;BME280_temperature;BME280_humidity;BME280_pressure;Samples;Min_cycle;Max_cycle;Signal;HPM_P1;HPM_P2
2022/11/05 00:10:39;;;;;;;52.03;31.52;;;358.90;2329.60;;;;;;4895962;29;20567;-58
2022/11/05 00:18:36;;;;;;;;;;;358.90;2329.60;;;;;;4915830;29;20122;-56
2022/11/05 00:21:02;;;;;;;54.40;33.70;;;358.90;2329.60;;;;;;4914454;29;20005;-53
2022/11/05 00:26:12;;;;;;;57.03;34.85;;;358.90;2329.60;;;;;;4920489;29;20058;-54
2022/11/05 00:28:43;;;;;;;51.00;32.08;;;358.90;2329.60;;;;;;4934505;29;20028;-59
2022/11/05 00:31:11;;;;;;;56.95;35.28;;;358.90;2329.60;;;;;;4934812;29;20474;-54
2022/11/05 00:33:39;;;;;;;52.90;33.65;;;358.90;2329.60;;;;;;4917753;29;20055;-56
2022/11/05 00:36:07;;;;;;;53.05;32.63;;;358.90;2329.60;;;;;;4915669;29;20048;-55
2022/11/05 00:38:33;;;;;;;47.92;30.90;;;358.90;2329.60;;;;;;4905546;29;20565;-58
2022/11/05 00:40:59;;;;;;;46.17;31.15;;;358.90;2329.60;;;;;;4902640;29;20115;-55
2022/11/05 00:46:09;;;;;;;46.53;31.52;;;358.80;2329.60;;;;;;4930024;28;20085;-56
2022/11/05 00:51:19;;;;;;;41.40;28.73;;;358.70;2329.60;;;;;;4959860;28;20045;-56
2022/11/05 00:53:45;;;;;;;44.00;30.60;;;358.70;2329.60;;;;;;4961781;28;20035;-53
2022/11/05 00:56:11;;;;;;;41.40;30.13;;;358.70;2329.60;;;;;;4956366;28;20085;-58
2022/11/05 00:58:36;;;;;;;42.97;30.63;;;358.70;2329.60;;;;;;4969176;28;20031;-59
2022/11/05 01:01:03;;;;;;;44.05;31.35;;;358.70;2329.60;;;;;;4969479;28;20030;-59
2022/11/05 01:03:32;;;;;;;42.25;30.33;;;358.70;2329.60;;;;;;4970855;28;20047;-58
2022/11/05 01:06:11;;;;;;;43.08;30.98;;;358.70;2329.60;;;;;;4970126;28;20042;-56
2022/11/05 01:08:38;;;;;;;43.63;31.33;;;358.70;2329.60;;;;;;4969607;28;20714;-58
2022/11/05 01:11:10;;;;;;;45.78;31.98;;;358.60;2329.60;;;;;;4970958;28;20035;-55
2022/11/05 01:13:37;;;;;;;44.97;31.80;;;358.50;2329.60;;;;;;4966352;28;20051;-54
2022/11/05 01:16:08;;;;;;;41.75;29.63;;;358.50;2329.60;;;;;;4970154;28;20034;-59
2022/11/05 01:18:36;;;;;;;35.97;24.83;;;358.40;2329.60;;;;;;4969658;28;20045;-53
2022/11/05 01:21:13;;;;;;;38.83;24.20;;;333.70;2329.60;;;;;;4969704;28;20036;-57
2022/11/05 01:23:39;;;;;;;38.30;25.52;;;333.60;2329.60;;;;;;4969422;28;20507;-54
2022/11/05 01:26:05;;;;;;;36.10;23.20;;;333.60;2329.60;;;;;;4971783;28;20050;-53
2022/11/05 01:28:30;;;;;;;32.00;20.08;;;333.50;2329.60;;;;;;4971498;28;20031;-53
2022/11/05 01:30:56;;;;;;;26.63;16.33;;;333.40;2329.60;;;;;;4971504;28;20069;-54
2022/11/05 01:33:23;;;;;;;22.42;14.32;;;333.30;2329.60;;;;;;4971755;28;20027;-53
2022/11/05 01:35:50;;;;;;;22.10;12.48;;;333.20;2329.60;;;;;;4971559;28;20353;-54
2022/11/05 01:38:17;;;;;;;20.23;12.02;;;333.10;2329.60;;;;;;4971738;28;20062;-53
2022/11/05 01:40:43;;;;;;;20.58;12.15;;;333.00;2329.60;;;;;;4973534;28;20437;-55
2022/11/05 01:43:18;;;;;;;18.25;11.60;;;332.90;2329.60;;;;;;4975685;28;20067;-56
2022/11/05 01:45:50;;;;;;;16.13;10.02;;;332.80;2329.60;;;;;;4974966;28;20066;-53
2022/11/05 01:48:30;;;;;;;15.23;9.27;;;332.80;2329.60;;;;;;4973135;28;20699;-55
2022/11/05 01:51:01;;;;;;;13.32;7.47;;;308.10;2304.00;;;;;;4956307;29;20045;-55
2022/11/05 01:53:51;;;;;;;16.10;7.88;;;308.00;2304.00;;;;;;4971293;28;20185;-55
2022/11/05 01:56:20;;;;;;;11.27;6.70;;;307.90;2304.00;;;;;;4975715;28;20090;-55
2022/11/05 01:59:01;;;;;;;11.75;6.22;;;307.70;2304.00;;;;;;4969719;28;20035;-53
2022/11/05 02:01:27;;;;;;;10.35;5.22;;;;;;;;;;4975125;28;20082;-53
2022/11/05 02:03:57;;;;;;;10.32;6.00;;;;;;;;;;4975672;28;20031;-58
2022/11/05 02:06:24;;;;;;;9.48;5.63;;;;;;;;;;4967433;28;20583;-58
2022/11/05 02:08:52;;;;;;;11.05;6.30;;;;;;;;;;4975467;28;20023;-54
2022/11/05 02:11:19;;;;;;;10.35;6.57;;;;;;;;;;4964513;28;20035;-57
2022/11/05 02:13:46;;;;;;;6.93;4.60;;;;;;;;;;4955520;28;20046;-58
2022/11/05 02:16:23;;;;;;;8.52;5.57;;;;;;;;;;4955384;28;20034;-53
2022/11/05 02:19:03;;;;;;;8.38;5.28;;;;;;;;;;4955526;29;20494;-54
2022/11/05 02:21:31;;;;;;;7.07;4.50;;;;;;;;;;4963762;28;20023;-53
2022/11/05 02:23:57;;;;;;;10.57;6.78;;;;;;;;;;4975724;28;20030;-53
2022/11/05 02:26:26;;;;;;;8.57;5.60;;;;;;;;;;4973685;28;20507;-58
2022/11/05 02:29:05;;;;;;;10.68;6.15;;;;;;;;;;4974973;28;20027;-53
2022/11/05 02:31:50;;;;;;;10.35;6.50;;;;;;;;;;4974920;28;20487;-57
2022/11/05 02:34:21;;;;;;;10.70;6.40;;;;;;;;;;4974842;28;20373;-59
2022/11/05 02:37:00;;;;;;;9.45;6.30;;;;;;;;;;4975205;28;20321;-57
2022/11/05 02:39:58;;;;;;;9.00;5.57;;;;;;;;;;4974548;28;20034;-58
2022/11/05 02:42:30;;;;;;;9.90;6.28;;;;;;;;;;4913758;29;20542;-58
2022/11/05 02:44:57;;;;;;;8.68;6.05;;;;;;;;;;4915463;28;20487;-57
2022/11/05 02:47:23;;;;;;;8.13;6.03;;;;;;;;;;4916667;29;20032;-54
2022/11/05 02:49:58;;;;;;;8.35;6.25;;;;;;;;;;4916364;29;20824;-55
2022/11/05 02:52:28;;;;;;;7.50;5.70;;;;;;;;;;4917329;29;20120;-54
2022/11/05 02:54:57;;;;;;;9.43;6.28;;;;;;;;;;4916505;29;20052;-54
2022/11/05 02:57:23;;;;;;;6.93;5.03;;;;;;;;;;4916256;29;20032;-53
2022/11/05 02:59:59;;;;;;;9.85;6.38;;;;;;;;;;4917183;29;20056;-55
2022/11/05 03:02:25;;;;;;;10.57;6.90;;;;;;;;;;4915313;29;20032;-54
2022/11/05 03:04:51;;;;;;;7.28;5.07;;;;;;;;;;4917016;29;20067;-54
2022/11/05 03:07:17;;;;;;;7.47;5.10;;;;;;;;;;4914820;29;20036;-53
2022/11/05 03:10:02;;;;;;;8.80;5.65;;;;;;;;;;4916376;29;20139;-55
2022/11/05 03:12:28;;;;;;;8.52;6.05;;;;;;;;;;4913972;29;20087;-53
2022/11/05 03:14:59;;;;;;;8.65;6.70;;;307.20;2304.00;;;;;;4915834;29;20032;-54
2022/11/05 03:17:43;;;;;;;7.80;5.45;;;282.20;2278.40;;;;;;4932571;28;20042;-56
2022/11/05 03:20:19;;;;;;;8.05;5.97;;;282.10;2278.40;;;;;;4955710;29;20516;-53
2022/11/05 03:22:52;;;;;;;8.27;5.93;;;282.10;2278.40;;;;;;4956399;29;20051;-54
2022/11/05 03:25:21;;;;;;;9.40;6.47;;;282.10;2278.40;;;;;;4966986;28;20053;-54
2022/11/05 03:27:52;;;;;;;10.02;7.28;;;282.10;2278.40;;;;;;4975631;28;20030;-54
2022/11/05 03:30:19;;;;;;;7.75;5.57;;;282.10;2278.40;;;;;;4976416;28;20077;-54
2022/11/05 03:32:49;;;;;;;9.50;6.13;;;282.30;2278.40;;;;;;4975288;28;20031;-56
2022/11/05 03:35:24;;;;;;;10.18;5.90;;;282.00;2278.40;;;;;;4974148;28;20465;-54
2022/11/05 03:37:55;;;;;;;10.20;7.07;;;282.00;2278.40;;;;;;4975064;28;20119;-53
2022/11/05 03:40:23;;;;;;;9.80;6.50;;;281.90;2278.40;;;;;;4971728;28;20504;-53
2022/11/05 03:42:54;;;;;;;9.88;6.63;;;281.90;2278.40;;;;;;4957360;28;20078;-55
2022/11/05 03:45:29;;;;;;;8.23;5.90;;;281.80;2278.40;;;;;;4955805;29;20039;-54
2022/11/05 03:47:58;;;;;;;10.02;6.60;;;281.80;2278.40;;;;;;4956159;28;20024;-55
2022/11/05 03:50:54;;;;;;;9.27;6.35;;;281.70;2278.40;;;;;;4961008;28;20126;-53
2022/11/05 03:53:29;;;;;;;10.40;7.05;;;281.80;2278.40;;;;;;4974698;28;20026;-54
2022/11/05 03:56:06;;;;;;;10.27;7.25;;;281.70;2278.40;;;;;;4973997;28;20026;-55
2022/11/05 03:58:34;;;;;;;10.93;7.50;;;281.70;2278.40;;;;;;4972085;28;20037;-57
2022/11/05 04:01:01;;;;;;;11.65;7.68;;;281.70;2278.40;;;;;;4959587;28;20034;-55
2022/11/05 04:03:34;;;;;;;9.63;6.97;;;282.00;2278.40;;;;;;4974125;28;20027;-54
2022/11/05 04:14:13;;;;;;;9.20;6.63;;;281.90;2278.40;;;;;;4974582;28;20053;-53
2022/11/05 04:24:51;;;;;;;8.52;6.45;;;281.80;2278.40;;;;;;4974791;28;20073;-55
2022/11/05 04:27:17;;;;;;;12.20;7.72;;;281.70;2278.40;;;;;;4974740;28;20051;-55
2022/11/05 04:32:26;;;;;;;9.45;6.47;;;281.80;2278.40;;;;;;4974266;28;20038;-53
2022/11/05 04:34:52;;;;;;;10.52;7.18;;;281.70;2278.40;;;;;;4973805;28;20035;-54
2022/11/05 04:37:18;;;;;;;11.27;8.05;;;281.80;2278.40;;;;;;4973985;28;20345;-54
2022/11/05 04:39:43;;;;;;;10.52;7.25;;;281.90;2278.40;;;;;;4974730;28;20106;-55
2022/11/05 04:42:09;;;;;;;9.70;7.00;;;281.90;2278.40;;;;;;4968360;28;20031;-57
2022/11/05 04:44:35;;;;;;;9.77;7.18;;;281.90;2278.40;;;;;;4973290;28;20435;-54
2022/11/05 04:47:00;;;;;;;10.43;7.30;;;281.80;2278.40;;;;;;4974050;28;20114;-54
2022/11/05 04:49:26;;;;;;;10.40;7.60;;;281.80;2278.40;;;;;;4973251;28;20023;-55
2022/11/05 04:51:51;;;;;;;12.65;7.65;;;281.90;2278.40;;;;;;4973883;28;20054;-54
2022/11/05 04:54:17;;;;;;;10.48;7.20;;;281.90;2278.40;;;;;;4973867;28;20023;-54
2022/11/05 04:56:43;;;;;;;10.10;6.32;;;281.90;2278.40;;;;;;4969309;28;20051;-55
2022/11/05 04:59:08;;;;;;;9.50;7.18;;;281.90;2278.40;;;;;;4968752;28;20026;-54
2022/11/05 05:01:34;;;;;;;11.90;7.53;;;281.80;2278.40;;;;;;4972865;28;20080;-54
2022/11/05 05:04:00;;;;;;;11.13;7.55;;;281.90;2278.40;;;;;;4962117;28;20117;-54
2022/11/05 05:06:25;;;;;;;10.65;6.95;;;281.90;2278.40;;;;;;4954980;29;20080;-55
2022/11/05 05:08:51;;;;;;;10.13;6.90;;;281.90;2278.40;;;;;;4960398;28;20081;-54
2022/11/05 05:11:19;;;;;;;10.18;6.93;;;281.90;2278.40;;;;;;4973816;28;20034;-56
2022/11/05 05:13:45;;;;;;;10.13;7.22;;;281.90;2278.40;;;;;;4973827;28;20047;-55
2022/11/05 05:16:19;;;;;;;11.43;7.63;;;281.90;2278.40;;;;;;4972538;28;20043;-54
2022/11/05 05:18:44;;;;;;;11.93;7.28;;;281.80;2278.40;;;;;;4973531;28;20019;-54
2022/11/05 05:23:54;;;;;;;12.50;8.05;;;281.80;2278.40;;;;;;4973508;28;20034;-53
2022/11/05 05:26:20;;;;;;;11.93;8.00;;;281.90;2278.40;;;;;;4973741;28;20704;-53
2022/11/05 05:28:45;;;;;;;13.95;9.27;;;281.90;2278.40;;;;;;4972658;28;20034;-60
2022/11/05 05:31:11;;;;;;;11.60;7.70;;;281.80;2278.40;;;;;;4971305;28;20042;-58
2022/11/05 05:33:37;;;;;;;13.57;7.90;;;281.70;2278.40;;;;;;4972124;28;20030;-54
2022/11/05 05:36:03;;;;;;;11.70;8.45;;;281.70;2278.40;;;;;;4971958;28;20069;-56
2022/11/05 05:38:28;;;;;;;14.35;9.48;;;281.80;2278.40;;;;;;4973483;28;20037;-56
2022/11/05 05:40:58;;;;;;;12.50;8.27;;;281.70;2278.40;;;;;;4972140;28;20026;-54
2022/11/05 05:43:23;;;;;;;13.20;8.32;;;281.70;2278.40;;;;;;4973385;28;20027;-58
2022/11/05 05:45:49;;;;;;;11.23;7.50;;;281.70;2278.40;;;;;;4973017;28;20039;-56
2022/11/05 05:48:15;;;;;;;11.80;7.97;;;281.60;2278.40;;;;;;4973335;28;20029;-56
2022/11/05 05:50:41;;;;;;;12.27;7.82;;;281.60;2278.40;;;;;;4973942;28;20469;-61
2022/11/05 05:53:06;;;;;;;10.68;7.45;;;281.60;2278.40;;;;;;4958796;28;20070;-61
2022/11/05 05:55:32;;;;;;;16.90;8.85;;;281.60;2278.40;;;;;;4954280;28;20024;-60
2022/11/05 05:57:58;;;;;;;12.77;8.02;;;281.70;2278.40;;;;;;4966384;28;20114;-59
2022/11/05 06:00:23;;;;;;;13.15;8.13;;;281.70;2278.40;;;;;;4973553;28;20370;-61
2022/11/05 06:02:49;;;;;;;13.38;8.18;;;281.60;2278.40;;;;;;4974108;28;20023;-55
2022/11/05 06:05:15;;;;;;;11.52;7.95;;;281.60;2278.40;;;;;;4966538;28;20042;-61
2022/11/05 06:07:40;;;;;;;10.93;7.55;;;281.60;2278.40;;;;;;4974183;28;20027;-58
2022/11/05 06:10:06;;;;;;;13.38;8.73;;;281.60;2278.40;;;;;;4972798;28;20536;-58
2022/11/05 06:12:32;;;;;;;11.32;7.82;;;281.60;2278.40;;;;;;4973334;28;20106;-57
2022/11/05 06:14:58;;;;;;;11.60;7.88;;;281.60;2278.40;;;;;;4971736;28;20085;-56
2022/11/05 06:17:23;;;;;;;11.07;7.15;;;281.60;2278.40;;;;;;4966963;28;20028;-63
2022/11/05 06:19:49;;;;;;;11.25;7.38;;;281.60;2278.40;;;;;;4972888;28;20027;-55
2022/11/05 06:22:15;;;;;;;10.02;6.57;;;281.60;2278.40;;;;;;4971098;28;20555;-59
2022/11/05 06:24:41;;;;;;;10.52;7.28;;;281.60;2278.40;;;;;;4972104;28;20476;-61
2022/11/05 06:27:06;;;;;;;10.52;7.18;;;281.60;2278.40;;;;;;4969711;28;20054;-57
2022/11/05 06:29:34;;;;;;;11.13;7.30;;;282.10;2278.40;;;;;;4965329;28;20027;-57
2022/11/05 06:32:00;;;;;;;12.82;7.63;;;281.70;2278.40;;;;;;4977665;28;20023;-58
2022/11/05 06:34:26;;;;;;;8.88;6.45;;;281.70;2278.40;;;;;;4977576;28;20106;-59
2022/11/05 06:36:52;;;;;;;11.30;7.70;;;281.70;2278.40;;;;;;4965343;28;20027;-61
2022/11/05 06:39:17;;;;;;;10.93;7.30;;;281.60;2278.40;;;;;;4976964;28;20062;-60
2022/11/05 06:41:43;;;;;;;9.93;6.65;;;281.60;2278.40;;;;;;4977195;28;20030;-58
2022/11/05 06:44:09;;;;;;;12.73;7.88;;;281.60;2278.40;;;;;;4975008;28;20103;-60
2022/11/05 06:46:34;;;;;;;10.43;7.20;;;281.70;2278.40;;;;;;4972800;28;20121;-59
2022/11/05 06:49:00;;;;;;;10.25;7.43;;;281.60;2278.40;;;;;;4977544;28;20417;-59
2022/11/05 06:51:26;;;;;;;10.50;7.10;;;281.60;2278.40;;;;;;4969481;28;20118;-55
2022/11/05 06:53:51;;;;;;;11.77;7.97;;;281.60;2278.40;;;;;;4972950;28;20026;-58
2022/11/05 06:56:17;;;;;;;10.93;7.65;;;281.60;2278.40;;;;;;4973010;28;20109;-54
2022/11/05 06:58:43;;;;;;;10.57;7.28;;;281.60;2278.40;;;;;;4967847;28;20066;-54
2022/11/05 07:01:09;;;;;;;27.90;17.80;;;281.60;2278.40;;;;;;4975936;28;20085;-60
2022/11/05 07:03:36;;;;;;;100.40;45.30;;;281.60;2278.40;;;;;;4968501;28;20528;-60
2022/11/05 07:06:03;;;;;;;74.28;55.97;;;281.60;2278.40;;;;;;4972742;28;20047;-57
2022/11/05 07:08:34;;;;;;;22.38;12.50;;;281.70;2278.40;;;;;;4975387;28;20078;-56
2022/11/05 07:10:59;;;;;;;17.10;10.35;;;281.70;2278.40;;;;;;4976708;28;20031;-61
2022/11/05 07:13:25;;;;;;;51.78;44.03;;;281.80;2278.40;;;;;;4975456;28;20497;-54
2022/11/05 07:15:51;;;;;;;16.63;13.15;;;281.70;2278.40;;;;;;4968397;28;20062;-55
2022/11/05 07:18:17;;;;;;;12.88;8.88;;;281.70;2278.40;;;;;;4957571;29;20019;-55
2022/11/05 07:20:42;;;;;;;56.85;26.42;;;281.70;2278.40;;;;;;4971638;28;20097;-53
2022/11/05 07:23:13;;;;;;;14.70;9.35;;;281.90;2278.40;;;;;;4976856;28;20031;-53
2022/11/05 07:25:40;;;;;;;15.57;9.25;;;281.80;2278.40;;;;;;4958279;28;20408;-56
2022/11/05 07:28:06;;;;;;;15.25;8.75;;;281.70;2278.40;;;;;;4974698;28;20065;-54
2022/11/05 07:30:32;;;;;;;20.55;10.77;;;281.80;2278.40;;;;;;4976605;28;20063;-54
2022/11/05 07:32:58;;;;;;;9.77;6.45;;;281.70;2278.40;;;;;;4976379;28;20030;-56
2022/11/05 07:35:24;;;;;;;12.10;7.25;;;281.80;2278.40;;;;;;4957871;28;20022;-55
2022/11/05 07:37:52;;;;;;;28.70;14.43;;;281.70;2278.40;;;;;;4973983;28;20031;-54
2022/11/05 07:40:19;;;;;;;9.43;6.30;;;281.90;2278.40;;;;;;4976593;28;20034;-57
2022/11/05 07:42:47;;;;;;;12.98;7.85;;;281.80;2278.40;;;;;;4975965;28;20027;-54
2022/11/05 07:45:13;;;;;;;24.83;12.63;;;281.80;2278.40;;;;;;4975162;28;20067;-54
2022/11/05 07:47:48;;;;;;;22.60;10.93;;;281.90;2278.40;;;;;;4975378;28;20081;-53
2022/11/05 07:50:16;;;;;;;22.63;12.15;;;281.80;2278.40;;;;;;4975713;28;20034;-55
2022/11/05 07:52:42;;;;;;;17.08;9.63;;;281.80;2278.40;;;;;;4965123;28;20119;-53
2022/11/05 07:55:10;;;;;;;24.95;12.65;;;281.90;2278.40;;;;;;4967427;28;20030;-54
2022/11/05 07:57:49;;;;;;;21.15;10.20;;;281.90;2278.40;;;;;;4975609;28;20058;-55
2022/11/05 08:00:19;;;;;;;13.50;8.43;;;281.90;2278.40;;;;;;4968985;28;20034;-54
2022/11/05 08:03:03;;;;;;;11.05;7.15;;;282.00;2278.40;;;;;;4974818;28;20059;-53
2022/11/05 08:05:30;;;;;;;13.70;7.60;;;282.10;2252.80;;;;;;4975154;28;20035;-54
2022/11/05 08:07:56;;;;;;;11.88;7.20;;;282.10;2278.40;;;;;;4974422;28;20027;-52
2022/11/05 08:10:23;;;;;;;9.88;5.78;;;282.10;2022.40;;;;;;4974104;28;20480;-56
2022/11/05 08:12:51;;;;;;;11.30;6.80;;;282.10;2278.40;;;;;;4971494;28;20041;-54
2022/11/05 08:15:16;;;;;;;12.73;7.85;;;282.30;2278.40;;;;;;4956020;28;20027;-54
2022/11/05 08:17:42;;;;;;;9.50;6.30;;;282.40;2278.40;;;;;;4971071;28;20030;-55
2022/11/05 08:20:09;;;;;;;9.35;6.75;;;282.00;2278.40;;;;;;4975374;28;20050;-54
2022/11/05 08:22:35;;;;;;;13.95;8.45;;;282.50;2278.40;;;;;;4974608;28;20447;-59
2022/11/05 08:25:00;;;;;;;9.88;6.32;;;282.50;2278.40;;;;;;4975024;28;20035;-56
2022/11/05 08:27:26;;;;;;;11.73;6.78;;;307.20;2304.00;;;;;;4974616;28;20419;-57
2022/11/05 08:29:52;;;;;;;12.68;7.40;;;282.50;2278.40;;;;;;4975511;28;20434;-55
2022/11/05 08:32:17;;;;;;;11.77;7.07;;;307.20;2304.00;;;;;;4962824;28;20094;-57
2022/11/05 08:34:43;;;;;;;12.98;6.90;;;307.20;2304.00;;;;;;4955316;28;20023;-54
2022/11/05 08:37:09;;;;;;;13.15;7.40;;;307.30;2304.00;;;;;;4955752;29;20031;-56
2022/11/05 08:39:34;;;;;;;9.63;5.55;;;307.40;2304.00;;;;;;4972935;28;20121;-56
2022/11/05 08:42:00;;;;;;;10.52;6.10;;;307.30;2304.00;;;;;;4975509;28;20034;-55
2022/11/05 08:44:26;;;;;;;8.27;5.75;;;307.20;2304.00;;;;;;4973271;28;20428;-56
2022/11/05 08:46:53;;;;;;;11.32;6.30;;;307.30;2304.00;;;;;;4974993;28;20495;-57
2022/11/05 08:49:18;;;;;;;11.18;6.63;;;307.30;2304.00;;;;;;4974377;28;20042;-54
2022/11/05 08:51:44;;;;;;;11.35;7.30;;;307.30;2304.00;;;;;;4974281;28;20023;-55
2022/11/05 08:54:10;;;;;;;8.98;6.50;;;307.30;2304.00;;;;;;4974523;28;20026;-54
2022/11/05 08:56:35;;;;;;;11.88;6.93;;;307.40;2304.00;;;;;;4974825;28;20102;-55
2022/11/05 08:59:01;;;;;;;8.10;5.43;;;307.40;2201.60;;;;;;4974097;28;20031;-60
2022/11/05 09:01:27;;;;;;;11.82;6.90;;;307.30;2176.00;;;;;;4974302;28;20082;-54
2022/11/05 09:03:53;;;;;;;11.52;6.68;;;307.30;2252.80;;;;;;4973324;28;20085;-58
2022/11/05 09:06:21;;;;;;;12.32;7.13;;;307.20;2304.00;;;;;;4974199;28;20042;-56
2022/11/05 09:08:47;;;;;;;9.57;6.10;;;307.20;2278.40;;;;;;4965013;28;20070;-54
2022/11/05 09:11:13;;;;;;;10.20;6.47;;;307.30;2304.00;;;;;;4973844;28;20035;-62
2022/11/05 09:13:39;;;;;;;12.38;7.07;;;307.20;2150.40;;;;;;4974241;28;20444;-62
2022/11/05 09:16:05;;;;;;;14.60;8.90;;;307.20;2304.00;;;;;;4974055;28;20050;-54
2022/11/05 09:18:32;;;;;;;8.35;5.82;;;307.20;2304.00;;;;;;4966573;28;20106;-57
2022/11/05 09:20:58;;;;;;;10.25;5.75;;;307.20;2304.00;;;;;;4961496;28;20059;-58
2022/11/05 09:23:23;;;;;;;9.68;6.13;;;307.20;2304.00;;;;;;4954244;28;20054;-62
2022/11/05 09:25:49;;;;;;;9.15;5.85;;;307.20;2304.00;;;;;;4957335;28;20062;-57
2022/11/05 09:28:20;;;;;;;10.63;6.53;;;307.20;2304.00;;;;;;4962311;28;20031;-59
2022/11/05 09:30:47;;;;;;;12.40;7.55;;;307.20;2048.00;;;;;;4974248;28;20063;-54
2022/11/05 09:33:14;;;;;;;13.73;8.05;;;307.20;2227.20;;;;;;4972604;28;20054;-57
2022/11/05 09:35:40;;;;;;;17.10;9.70;;;307.20;2304.00;;;;;;4973384;28;20039;-55
2022/11/05 09:38:06;;;;;;;10.50;6.97;;;307.40;2073.60;;;;;;4972160;28;20109;-56
2022/11/05 09:40:39;;;;;;;17.05;9.77;;;307.40;2201.60;;;;;;4973855;28;20519;-56
2022/11/05 09:43:05;;;;;;;15.02;8.38;;;307.40;2022.40;;;;;;4973871;28;20473;-56
2022/11/05 09:45:34;;;;;;;17.48;10.90;;;307.30;2304.00;;;;;;4973569;28;20046;-60
2022/11/05 09:48:22;;;;;;;16.30;10.52;;;307.20;2304.00;;;;;;4956822;28;20377;-60
2022/11/05 09:50:49;;;;;;;13.40;8.52;;;307.30;2304.00;;;;;;4973609;28;20023;-60
2022/11/05 09:53:19;;;;;;;14.63;9.80;;;307.20;2304.00;;;;;;4974192;28;20027;-55
2022/11/05 09:55:56;;;;;;;12.35;8.00;;;307.20;2304.00;;;;;;4972521;28;20031;-54
2022/11/05 09:58:38;;;;;;;13.35;9.07;;;307.30;2304.00;;;;;;4972658;28;20034;-55
2022/11/05 10:01:09;;;;;;;17.30;10.05;;;307.30;2304.00;;;;;;4972513;28;20034;-58
2022/11/05 10:03:41;;;;;;;22.42;12.55;;;307.40;2304.00;;;;;;4976462;28;20369;-55
2022/11/05 10:06:11;;;;;;;21.23;11.23;;;307.50;2304.00;;;;;;4970239;28;20051;-56
2022/11/05 10:08:43;;;;;;;20.98;11.77;;;307.60;2304.00;;;;;;4967078;28;20023;-57
2022/11/05 10:11:23;;;;;;;13.05;7.55;;;307.70;1920.00;;;;;;4959983;28;20488;-54
2022/11/05 10:13:52;;;;;;;15.52;8.88;;;;;;;;;;4975513;28;20054;-54
2022/11/05 10:16:32;;;;;;;17.63;9.75;;;;;;;;;;4960704;28;20031;-55
2022/11/05 10:19:00;;;;;;;14.48;8.10;;;;;;;;;;4968523;28;20030;-53
2022/11/05 10:21:26;;;;;;;11.55;7.65;;;;;;;;;;4976589;28;20066;-61
2022/11/05 10:23:53;;;;;;;14.60;7.72;;;308.10;2304.00;;;;;;4976353;28;20106;-55
2022/11/05 10:26:23;;;;;;;19.10;9.68;;;308.00;2304.00;;;;;;4975271;28;20051;-60
2022/11/05 10:28:50;;;;;;;17.90;10.25;;;307.90;2304.00;;;;;;4975052;28;20027;-56
2022/11/05 10:31:19;;;;;;;13.73;8.38;;;307.90;2304.00;;;;;;4975444;28;20122;-58
2022/11/05 10:34:00;;;;;;;12.23;7.38;;;307.80;2304.00;;;;;;4975391;28;20027;-55
2022/11/05 10:36:33;;;;;;;10.45;7.50;;;307.70;2304.00;;;;;;4971354;28;20042;-55
2022/11/05 10:39:28;;;;;;;12.52;7.97;;;307.70;2304.00;;;;;;4974091;28;20050;-59
2022/11/05 10:42:19;;;;;;;14.25;8.27;;;307.70;2304.00;;;;;;4973354;28;20023;-61
2022/11/05 10:45:22;;;;;;;11.48;7.70;;;307.70;2304.00;;;;;;4973727;28;20125;-51
2022/11/05 10:48:09;;;;;;;11.20;7.70;;;307.90;2304.00;;;;;;4965239;28;20024;-54
2022/11/05 10:50:35;;;;;;;10.00;6.70;;;307.90;2304.00;;;;;;4954792;28;20150;-56
2022/11/05 10:53:15;;;;;;;31.08;16.05;;;307.90;2304.00;;;;;;4970960;28;20146;-54
2022/11/05 10:55:45;;;;;;;14.73;9.00;;;307.90;2304.00;;;;;;4969757;28;20097;-54
2022/11/05 10:58:16;;;;;;;22.60;11.82;;;307.80;2304.00;;;;;;4972298;28;20050;-52
2022/11/05 11:00:50;;;;;;;44.28;21.05;;;307.80;2304.00;;;;;;4974220;28;20134;-55
2022/11/05 11:03:38;;;;;;;14.95;9.40;;;307.80;2304.00;;;;;;4969396;28;20038;-54
2022/11/05 11:06:28;;;;;;;18.55;9.70;;;307.80;2304.00;;;;;;4953690;28;20090;-52
2022/11/05 11:09:00;;;;;;;12.57;7.97;;;307.90;2304.00;;;;;;4954521;28;20042;-55
2022/11/05 11:11:34;;;;;;;15.88;9.38;;;307.90;2304.00;;;;;;4954722;28;20042;-54
2022/11/05 11:14:12;;;;;;;15.80;8.65;;;307.80;2304.00;;;;;;4968458;28;20505;-53
2022/11/05 11:16:41;;;;;;;12.93;8.25;;;307.90;2304.00;;;;;;4972413;28;20125;-54
2022/11/05 11:19:29;;;;;;;23.45;12.05;;;307.90;2304.00;;;;;;4972907;28;20027;-59
2022/11/05 11:22:03;;;;;;;19.95;11.43;;;308.00;2304.00;;;;;;4973117;28;20130;-53
2022/11/05 11:24:36;;;;;;;22.75;12.73;;;308.00;2304.00;;;;;;4972502;28;20031;-53
2022/11/05 11:27:04;;;;;;;12.60;7.95;;;308.00;2304.00;;;;;;4972956;28;20035;-60
2022/11/05 11:29:34;;;;;;;12.88;7.95;;;333.10;2329.60;;;;;;4972113;28;20038;-62
2022/11/05 11:32:01;;;;;;;21.63;12.25;;;333.10;2329.60;;;;;;4972985;28;20057;-54
2022/11/05 11:34:29;;;;;;;12.05;7.85;;;;;;;;;;4971490;28;20157;-56
2022/11/05 11:37:06;;;;;;;13.80;8.68;;;333.10;2329.60;;;;;;4972556;28;20033;-58
2022/11/05 11:39:32;;;;;;;16.08;9.70;;;332.80;2329.60;;;;;;4969966;28;20477;-61
2022/11/05 11:42:04;;;;;;;15.35;9.40;;;308.10;2304.00;;;;;;4958492;28;20038;-54
2022/11/05 11:44:35;;;;;;;20.25;11.60;;;333.10;2329.60;;;;;;4969480;28;20559;-56
2022/11/05 11:47:09;;;;;;;17.45;10.77;;;308.00;2304.00;;;;;;4961283;28;20058;-53
2022/11/05 11:49:41;;;;;;;23.75;12.73;;;308.10;2304.00;;;;;;4960491;28;20031;-60
2022/11/05 11:52:37;;;;;;;19.25;12.57;;;308.10;2304.00;;;;;;4969864;28;20057;-58
2022/11/05 11:55:12;;;;;;;15.27;9.98;;;332.80;2329.60;;;;;;4970240;28;20472;-59
2022/11/05 11:57:51;;;;;;;25.45;15.57;;;308.00;2304.00;;;;;;4968870;28;20035;-53
2022/11/05 12:00:18;;;;;;;22.83;12.95;;;308.10;2304.00;;;;;;4968892;28;20101;-55
2022/11/05 12:03:25;;;;;;;22.25;13.88;;;332.80;2329.60;;;;;;4971245;28;20086;-54
2022/11/05 12:06:23;;;;;;;19.33;12.60;;;332.80;2329.60;;;;;;4967990;28;20050;-57
2022/11/05 12:09:26;;;;;;;29.30;17.65;;;332.90;2329.60;;;;;;4969915;28;20061;-58
2022/11/05 12:12:06;;;;;;;36.42;21.63;;;332.90;2329.60;;;;;;4967370;28;20047;-53
2022/11/05 12:14:38;;;;;;;28.92;18.58;;;333.00;2329.60;;;;;;4971448;28;20129;-57
2022/11/05 12:17:31;;;;;;;32.72;19.42;;;332.90;2329.60;;;;;;4972095;28;20050;-55
2022/11/05 12:20:15;;;;;;;44.58;24.45;;;333.00;2329.60;;;;;;4973502;28;20029;-53
2022/11/05 12:22:58;;;;;;;41.80;25.63;;;333.00;2329.60;;;;;;4974517;28;20473;-57
2022/11/05 12:25:28;;;;;;;45.83;28.65;;;;;;;;;;4973614;28;20320;-60
2022/11/05 12:28:21;;;;;;;68.82;39.38;;;;;;;;;;4974045;28;20030;-54
2022/11/05 12:30:52;;;;;;;57.67;34.50;;;;;;;;;;4877157;29;20029;-56
2022/11/05 12:33:27;;;;;;;52.40;33.30;;;;;;;;;;4876850;29;20041;-59
2022/11/05 12:36:02;;;;;;;40.95;24.90;;;;;;;;;;4877468;29;20037;-60
2022/11/05 12:38:31;;;;;;;50.58;30.92;;;;;;;;;;4876305;29;20495;-60
2022/11/05 12:41:03;;;;;;;48.28;27.67;;;;;;;;;;4877169;29;20036;-59
2022/11/05 12:43:44;;;;;;;37.45;22.52;;;;;;;;;;4872610;29;20052;-52
2022/11/05 12:46:18;;;;;;;59.72;35.83;;;;;;;;;;4877709;29;20120;-52
2022/11/05 12:48:59;;;;;;;57.10;33.95;;;;;;;;;;4880984;29;20119;-52
2022/11/05 12:51:37;;;;;;;51.33;31.98;;;;;;;;;;4876610;29;20548;-52
2022/11/05 12:54:22;;;;;;;87.15;52.15;;;;;;;;;;4865152;29;20128;-52
2022/11/05 12:56:56;;;;;;;83.13;49.33;;;;;;;;;;4877008;29;20068;-52
2022/11/05 12:59:27;;;;;;;74.55;42.72;;;;;;;;;;4877865;29;20060;-53
2022/11/05 13:01:55;;;;;;;73.22;41.53;;;;;;;;;;4883238;29;20051;-52
2022/11/05 13:04:42;;;;;;;86.40;48.72;;;;;;;;;;4875471;29;20041;-52
2022/11/05 13:07:10;;;;;;;69.15;37.00;;;;;;;;;;4897646;28;20515;-52
2022/11/05 13:09:49;;;;;;;49.78;29.77;;;;;;;;;;4969991;28;20035;-51
2022/11/05 13:12:17;;;;;;;49.15;30.48;;;;;;;;;;4968886;28;20027;-53
2022/11/05 13:15:02;;;;;;;44.88;27.58;;;;;;;;;;4959647;28;20523;-54
2022/11/05 13:17:31;;;;;;;42.83;27.65;;;;;;;;;;4967666;28;20106;-53
2022/11/05 13:20:15;;;;;;;35.80;21.10;;;;;;;;;;4966577;28;20043;-52
2022/11/05 13:22:46;;;;;;;61.83;35.10;;;;;;;;;;4965305;28;20034;-51
2022/11/05 13:25:24;;;;;;;32.47;21.08;;;;;;;;;;4964396;28;20051;-53
2022/11/05 13:27:53;;;;;;;103.25;54.35;;;;;;;;;;4967744;28;20031;-53
2022/11/05 13:30:23;;;;;;;44.97;26.15;;;;;;;;;;4955933;28;20038;-54
2022/11/05 13:32:57;;;;;;;81.55;43.97;;;;;;;;;;4966876;28;20559;-52